createdAt,value
2018-05-01T00:00:33.964Z,12.11
2018-05-01T00:03:02.251Z,12.07
2018-05-01T00:05:31.157Z,12.09
2018-05-01T00:07:59.605Z,11.94
2018-05-01T00:10:27.896Z,12.01
2018-05-01T00:12:56.423Z,12.08
2018-05-01T00:15:25.275Z,12.12
2018-05-01T00:17:53.626Z,12.09
2018-05-01T00:20:21.943Z,12.05
2018-05-01T00:22:50.220Z,11.97
2018-05-01T00:25:19.170Z,11.94
2018-05-01T00:27:48.195Z,12.02
2018-05-01T00:30:16.956Z,11.92
2018-05-01T00:32:45.919Z,11.92
2018-05-01T00:35:15.558Z,11.88
2018-05-01T00:37:43.983Z,11.89
2018-05-01T00:40:12.934Z,11.90
2018-05-01T00:42:41.427Z,11.90
2018-05-01T00:45:09.742Z,11.80
2018-05-01T00:47:38.138Z,11.86
2018-05-01T00:50:06.430Z,11.71
2018-05-01T00:52:45.408Z,11.64
2018-05-01T00:55:14.467Z,11.70
2018-05-01T00:57:42.759Z,11.64
2018-05-01T01:00:11.451Z,11.52
2018-05-01T01:02:39.732Z,11.46
2018-05-01T01:05:08.102Z,11.40
2018-05-01T01:07:36.739Z,11.39
2018-05-01T01:10:05.382Z,11.37
2018-05-01T01:12:33.668Z,11.48
2018-05-01T01:15:03.022Z,11.47
2018-05-01T01:17:31.311Z,11.55
2018-05-01T01:19:59.591Z,11.61
2018-05-01T01:22:28.647Z,11.65
2018-05-01T01:24:56.927Z,11.69
2018-05-01T01:27:25.854Z,11.67
2018-05-01T01:29:54.494Z,11.71
2018-05-01T01:32:22.771Z,11.69
2018-05-01T01:34:51.497Z,11.61
2018-05-01T01:37:19.051Z,11.63
2018-05-01T01:39:46.539Z,11.59
2018-05-01T01:42:14.036Z,11.58
2018-05-01T01:44:41.944Z,11.49
2018-05-01T01:47:09.447Z,11.44
2018-05-01T01:49:36.946Z,11.51
2018-05-01T01:52:04.495Z,11.56
2018-05-01T01:54:31.983Z,11.51
2018-05-01T01:56:59.474Z,11.44
2018-05-01T01:59:26.994Z,11.47
2018-05-01T02:01:58.522Z,11.37
2018-05-01T02:04:26.035Z,11.32
2018-05-01T02:06:53.566Z,11.35
2018-05-01T02:09:21.059Z,11.36
2018-05-01T02:11:49.019Z,11.25
2018-05-01T02:14:16.546Z,11.25
2018-05-01T02:16:44.030Z,11.24
2018-05-01T02:19:11.515Z,11.18
2018-05-01T02:21:39.807Z,11.25
2018-05-01T02:24:07.299Z,11.23
2018-05-01T02:26:34.799Z,11.27
2018-05-01T02:29:02.328Z,11.20
2018-05-01T02:31:29.828Z,11.16
2018-05-01T02:33:58.097Z,11.21
2018-05-01T02:36:25.649Z,11.05
2018-05-01T02:38:54.607Z,11.14
2018-05-01T02:41:22.109Z,11.15
2018-05-01T02:43:50.367Z,11.06
2018-05-01T02:46:17.912Z,10.99
2018-05-01T02:48:45.615Z,11.01
2018-05-01T02:51:13.123Z,10.65
2018-05-01T02:53:40.654Z,10.50
2018-05-01T02:56:08.280Z,10.32
2018-05-01T02:58:35.783Z,10.19
2018-05-01T03:01:03.322Z,10.11
2018-05-01T03:03:30.811Z,9.98
2018-05-01T03:05:58.299Z,9.90
2018-05-01T03:08:25.853Z,9.91
2018-05-01T03:10:53.554Z,9.89
2018-05-01T03:13:21.052Z,9.67
2018-05-01T03:15:48.610Z,9.63
2018-05-01T03:18:16.117Z,9.55
2018-05-01T03:20:43.691Z,9.52
2018-05-01T03:23:11.987Z,9.46
2018-05-01T03:25:39.474Z,9.37
2018-05-01T03:28:06.960Z,9.34
2018-05-01T03:30:34.489Z,9.29
2018-05-01T03:33:01.993Z,9.20
2018-05-01T03:35:30.750Z,9.18
2018-05-01T03:37:58.270Z,9.17
2018-05-01T03:40:25.762Z,9.10
2018-05-01T03:42:53.242Z,9.03
2018-05-01T03:45:20.755Z,8.95
2018-05-01T03:47:48.802Z,9.01
2018-05-01T03:50:17.050Z,9.02
2018-05-01T03:52:44.588Z,8.97
2018-05-01T03:55:12.127Z,8.97
2018-05-01T03:57:39.606Z,8.97
2018-05-01T04:00:07.091Z,8.98
2018-05-01T04:02:34.627Z,8.87
2018-05-01T04:05:02.287Z,8.81
2018-05-01T04:07:29.808Z,8.80
2018-05-01T04:09:57.606Z,8.76
2018-05-01T04:12:25.102Z,8.82
2018-05-01T04:14:52.591Z,8.81
2018-05-01T04:17:20.107Z,8.84
2018-05-01T04:19:49.134Z,8.84
2018-05-01T04:22:16.618Z,8.82
2018-05-01T04:24:44.194Z,8.83
2018-05-01T04:27:11.682Z,8.92
2018-05-01T04:29:39.179Z,8.92
2018-05-01T04:32:06.722Z,8.97
2018-05-01T04:34:34.975Z,8.87
2018-05-01T04:37:02.458Z,8.92
2018-05-01T04:39:30.764Z,8.96
2018-05-01T04:41:58.563Z,8.90
2018-05-01T04:44:26.063Z,8.91
2018-05-01T04:46:53.728Z,8.88
2018-05-01T04:49:21.215Z,8.87
2018-05-01T04:51:48.766Z,8.91
2018-05-01T04:54:16.251Z,8.80
2018-05-01T04:56:44.342Z,8.84
2018-05-01T04:59:11.834Z,8.71
2018-05-01T05:01:39.363Z,8.68
2018-05-01T05:04:06.850Z,8.66
2018-05-01T05:06:34.334Z,8.71
2018-05-01T05:09:02.494Z,8.67
2018-05-01T05:11:30.107Z,8.68
2018-05-01T05:13:57.803Z,8.59
2018-05-01T05:16:26.515Z,8.44
2018-05-01T05:18:54.014Z,8.35
2018-05-01T05:21:21.499Z,8.12
2018-05-01T05:23:49.037Z,7.96
2018-05-01T05:26:16.527Z,8.02
2018-05-01T05:28:44.011Z,7.97
2018-05-01T05:31:12.875Z,8.02
2018-05-01T05:33:40.355Z,7.93
2018-05-01T05:36:07.843Z,8.02
2018-05-01T05:38:35.379Z,8.06
2018-05-01T05:41:02.869Z,7.85
2018-05-01T05:43:30.358Z,7.71
2018-05-01T05:45:58.634Z,7.63
2018-05-01T05:48:26.879Z,7.67
2018-05-01T05:50:54.422Z,7.66
2018-05-01T05:53:21.937Z,7.65
2018-05-01T05:55:49.436Z,7.71
2018-05-01T05:58:16.914Z,7.76
2018-05-01T06:00:44.443Z,7.87
2018-05-01T06:03:11.931Z,7.95
2018-05-01T06:05:39.413Z,8.01
2018-05-01T06:08:07.030Z,8.08
2018-05-01T06:10:34.523Z,8.10
2018-05-01T06:13:02.043Z,8.06
2018-05-01T06:15:29.591Z,8.39
2018-05-01T06:17:57.106Z,8.59
2018-05-01T06:20:27.462Z,8.59
2018-05-01T06:22:55.227Z,8.84
2018-05-01T06:25:23.334Z,8.75
2018-05-01T06:27:56.067Z,8.76
2018-05-01T06:30:23.598Z,8.85
2018-05-01T06:32:53.903Z,8.99
2018-05-01T06:35:21.391Z,8.56
2018-05-01T06:37:48.877Z,8.95
2018-05-01T06:40:16.407Z,8.96
2018-05-01T06:42:44.658Z,8.67
2018-05-01T06:45:12.142Z,8.53
2018-05-01T06:47:39.710Z,8.56
2018-05-01T06:50:07.515Z,8.71
2018-05-01T06:52:35.204Z,8.56
2018-05-01T06:55:02.722Z,8.60
2018-05-01T06:57:30.208Z,8.66
2018-05-01T06:59:57.726Z,8.72
2018-05-01T07:02:25.215Z,8.73
2018-05-01T07:04:52.726Z,8.28
2018-05-01T07:07:20.478Z,8.23
2018-05-01T07:09:48.011Z,8.15
2018-05-01T07:12:15.798Z,8.37
2018-05-01T07:14:44.316Z,8.62
2018-05-01T07:17:12.233Z,8.62
2018-05-01T07:19:39.726Z,9.06
2018-05-01T07:22:07.807Z,9.16
2018-05-01T07:24:36.359Z,9.62
2018-05-01T07:27:04.513Z,9.59
2018-05-01T07:29:32.166Z,9.64
2018-05-01T07:31:59.649Z,10.26
2018-05-01T07:34:27.146Z,10.41
2018-05-01T07:36:57.619Z,10.17
2018-05-01T07:39:25.203Z,9.95
2018-05-01T07:41:52.761Z,9.86
2018-05-01T07:44:20.822Z,9.85
2018-05-01T07:46:48.915Z,9.72
2018-05-01T07:49:16.739Z,9.71
2018-05-01T07:51:44.718Z,9.74
2018-05-01T07:54:12.272Z,9.95
2018-05-01T07:56:39.972Z,10.04
2018-05-01T07:59:07.462Z,10.43
2018-05-01T08:01:35.005Z,11.27
2018-05-01T08:04:02.514Z,11.84
2018-05-01T08:06:30.172Z,12.07
2018-05-01T08:08:57.654Z,12.22
2018-05-01T08:11:25.236Z,11.52
2018-05-01T08:13:52.759Z,10.37
2018-05-01T08:16:20.242Z,11.03
2018-05-01T08:18:47.762Z,11.54
2018-05-01T08:21:15.264Z,11.26
2018-05-01T08:23:43.738Z,11.04
2018-05-01T08:26:12.031Z,11.49
2018-05-01T08:28:40.294Z,11.66
2018-05-01T08:31:07.823Z,11.30
2018-05-01T08:33:35.350Z,11.53
2018-05-01T08:36:04.098Z,11.95
2018-05-01T08:38:31.591Z,11.78
2018-05-01T08:40:59.130Z,11.79
2018-05-01T08:43:26.955Z,11.82
2018-05-01T08:45:54.455Z,12.22
2018-05-01T08:48:22.094Z,12.19
2018-05-01T08:50:49.591Z,12.48
2018-05-01T08:53:17.083Z,13.07
2018-05-01T08:55:44.618Z,13.15
2018-05-01T08:58:12.111Z,13.60
2018-05-01T09:00:39.607Z,14.47
2018-05-01T09:03:07.138Z,14.92
2018-05-01T09:05:35.115Z,15.29
2018-05-01T09:08:02.602Z,16.18
2018-05-01T09:10:30.159Z,15.62
2018-05-01T09:12:58.431Z,14.10
2018-05-01T09:15:25.991Z,14.04
2018-05-01T09:17:53.798Z,14.83
2018-05-01T09:20:22.183Z,15.02
2018-05-01T09:22:49.810Z,15.09
2018-05-01T09:25:17.351Z,16.00
2018-05-01T09:27:44.847Z,16.57
2018-05-01T09:30:12.339Z,17.02
2018-05-01T09:32:39.862Z,16.59
2018-05-01T09:35:07.365Z,17.02
2018-05-01T09:37:34.903Z,17.24
2018-05-01T09:40:02.618Z,16.03
2018-05-01T09:42:30.119Z,16.92
2018-05-01T09:44:57.866Z,17.12
2018-05-01T09:47:25.951Z,17.36
2018-05-01T09:49:53.398Z,16.42
2018-05-01T09:52:21.732Z,17.08
2018-05-01T09:54:50.686Z,17.70
2018-05-01T09:57:19.350Z,18.29
2018-05-01T09:59:47.926Z,19.56
2018-05-01T10:02:16.247Z,19.40
2018-05-01T10:04:44.530Z,19.44
2018-05-01T10:07:12.810Z,20.62
2018-05-01T10:09:41.148Z,20.88
2018-05-01T10:12:09.747Z,19.72
2018-05-01T10:14:37.986Z,18.63
2018-05-01T10:17:06.824Z,17.25
2018-05-01T10:19:35.112Z,17.40
2018-05-01T10:22:03.612Z,17.84
2018-05-01T10:24:32.618Z,19.06
2018-05-01T10:27:00.938Z,17.79
2018-05-01T10:29:29.220Z,19.80
2018-05-01T10:31:57.501Z,19.80
2018-05-01T10:34:25.843Z,23.46
2018-05-01T10:36:54.189Z,24.45
2018-05-01T10:39:23.188Z,23.02
2018-05-01T10:41:51.877Z,19.85
2018-05-01T10:44:20.446Z,19.12
2018-05-01T10:46:48.960Z,19.75
2018-05-01T10:49:18.488Z,20.70
2018-05-01T10:51:47.642Z,21.53
2018-05-01T10:54:15.923Z,24.84
2018-05-01T10:56:44.542Z,25.27
2018-05-01T10:59:12.846Z,25.87
2018-05-01T11:01:44.216Z,24.80
2018-05-01T11:04:12.979Z,24.08
2018-05-01T11:06:41.999Z,24.47
2018-05-01T11:09:10.842Z,26.15
2018-05-01T11:11:39.679Z,25.87
2018-05-01T11:14:07.974Z,22.72
2018-05-01T11:16:36.360Z,26.35
2018-05-01T11:19:04.640Z,26.24
2018-05-01T11:21:33.399Z,27.72
2018-05-01T11:24:02.011Z,26.58
2018-05-01T11:26:30.805Z,26.36
2018-05-01T11:28:59.943Z,24.30
2018-05-01T11:31:28.982Z,23.47
2018-05-01T11:33:57.285Z,23.84
2018-05-01T11:36:25.714Z,23.34
2018-05-01T11:38:54.007Z,23.55
2018-05-01T11:41:22.339Z,22.80
2018-05-01T11:43:51.432Z,21.87
2018-05-01T11:46:19.536Z,22.33
2018-05-01T11:48:48.067Z,21.58
2018-05-01T11:51:16.342Z,20.20
2018-05-01T11:53:45.129Z,19.70
2018-05-01T11:56:13.791Z,19.98
2018-05-01T11:58:42.740Z,21.99
2018-05-01T12:01:11.017Z,22.64
2018-05-01T12:03:39.323Z,25.24
2018-05-01T12:06:07.607Z,26.30
2018-05-01T12:08:35.911Z,22.35
2018-05-01T12:11:04.530Z,22.28
2018-05-01T12:13:32.887Z,21.16
2018-05-01T12:16:01.569Z,21.68
2018-05-01T12:18:30.176Z,20.05
2018-05-01T12:20:58.479Z,20.50
2018-05-01T12:23:26.944Z,19.97
2018-05-01T12:25:55.223Z,20.05
2018-05-01T12:28:23.611Z,19.09
2018-05-01T12:30:51.791Z,17.14
2018-05-01T12:33:20.623Z,16.74
2018-05-01T12:35:48.910Z,17.98
2018-05-01T12:38:17.210Z,17.89
2018-05-01T12:40:45.535Z,17.85
2018-05-01T12:43:14.090Z,20.12
2018-05-01T12:45:42.467Z,20.75
2018-05-01T12:48:10.795Z,21.69
2018-05-01T12:50:39.858Z,21.11
2018-05-01T12:53:08.150Z,25.41
2018-05-01T12:55:36.475Z,25.43
2018-05-01T12:58:05.331Z,26.35
2018-05-01T13:00:34.591Z,21.67
2018-05-01T13:03:03.636Z,19.09
2018-05-01T13:05:32.679Z,22.59
2018-05-01T13:08:00.979Z,26.19
2018-05-01T13:10:30.962Z,23.26
2018-05-01T13:12:59.236Z,21.90
2018-05-01T13:15:28.066Z,25.61
2018-05-01T13:17:56.367Z,24.96
2018-05-01T13:20:24.813Z,24.29
2018-05-01T13:22:53.139Z,24.14
2018-05-01T13:25:22.218Z,23.80
2018-05-01T13:27:55.503Z,23.48
2018-05-01T13:30:24.572Z,25.35
2018-05-01T13:32:52.808Z,26.12
2018-05-01T13:35:21.095Z,27.32
2018-05-01T13:37:50.307Z,25.50
2018-05-01T13:40:18.619Z,23.97
2018-05-01T13:42:49.939Z,25.78
2018-05-01T13:45:18.254Z,26.25
2018-05-01T13:47:46.557Z,25.46
2018-05-01T13:50:15.381Z,21.16
2018-05-01T13:52:43.677Z,21.42
2018-05-01T13:55:12.676Z,24.88
2018-05-01T13:57:40.950Z,24.12
2018-05-01T14:00:09.515Z,23.42
2018-05-01T14:02:42.030Z,22.81
2018-05-01T14:05:10.321Z,21.83
2018-05-01T14:07:38.610Z,22.77
2018-05-01T14:10:08.150Z,23.41
2018-05-01T14:12:36.429Z,25.70
2018-05-01T14:15:04.948Z,25.83
2018-05-01T14:17:33.081Z,24.17
2018-05-01T14:20:01.884Z,24.72
2018-05-01T14:22:30.939Z,23.18
2018-05-01T14:24:59.250Z,20.90
2018-05-01T14:27:28.459Z,20.03
2018-05-01T14:29:57.850Z,23.94
2018-05-01T14:32:26.183Z,22.62
2018-05-01T14:34:54.500Z,21.82
2018-05-01T14:37:22.841Z,20.95
2018-05-01T14:39:51.123Z,24.79
2018-05-01T14:42:19.459Z,24.03
2018-05-01T14:44:47.739Z,23.53
2018-05-01T14:47:16.243Z,23.45
2018-05-01T14:49:47.111Z,23.44
2018-05-01T14:52:16.329Z,22.53
2018-05-01T14:54:44.655Z,22.77
2018-05-01T14:57:13.507Z,22.57
2018-05-01T14:59:42.778Z,22.24
2018-05-01T15:02:11.322Z,23.04
2018-05-01T15:04:40.974Z,23.99
2018-05-01T15:07:09.401Z,22.77
2018-05-01T15:09:38.341Z,19.74
2018-05-01T15:12:06.638Z,21.13
2018-05-01T15:14:35.299Z,23.38
2018-05-01T15:17:03.934Z,22.64
2018-05-01T15:19:32.217Z,21.78
2018-05-01T15:22:01.179Z,20.77
2018-05-01T15:24:29.679Z,18.15
2018-05-01T15:26:58.835Z,20.14
2018-05-01T15:29:27.110Z,18.96
2018-05-01T15:31:56.442Z,17.88
2018-05-01T15:34:24.757Z,19.66
2018-05-01T15:36:53.034Z,20.11
2018-05-01T15:39:21.312Z,19.78
2018-05-01T15:41:50.115Z,18.50
2018-05-01T15:44:19.019Z,18.50
2018-05-01T15:46:48.236Z,17.81
2018-05-01T15:49:16.541Z,18.79
2018-05-01T15:51:44.898Z,19.19
2018-05-01T15:54:14.007Z,17.76
2018-05-01T15:56:42.978Z,17.45
2018-05-01T15:59:11.773Z,19.25
2018-05-01T16:01:40.472Z,18.67
2018-05-01T16:04:08.791Z,19.16
2018-05-01T16:06:37.141Z,19.31
2018-05-01T16:09:05.424Z,20.16
2018-05-01T16:11:33.699Z,20.75
2018-05-01T16:14:02.018Z,20.35
2018-05-01T16:16:30.483Z,18.86
2018-05-01T16:18:59.529Z,18.67
2018-05-01T16:21:29.139Z,17.49
2018-05-01T16:23:58.172Z,17.23
2018-05-01T16:26:26.366Z,17.14
2018-05-01T16:28:54.723Z,16.22
2018-05-01T16:31:23.975Z,15.94
2018-05-01T16:33:52.318Z,16.46
2018-05-01T16:36:20.558Z,16.65
2018-05-01T16:38:49.142Z,17.96
2018-05-01T16:41:17.806Z,18.38
2018-05-01T16:43:45.967Z,17.92
2018-05-01T16:46:14.267Z,17.68
2018-05-01T16:48:42.558Z,16.56
2018-05-01T16:51:11.179Z,16.04
2018-05-01T16:53:41.639Z,16.24
2018-05-01T16:56:09.939Z,16.70
2018-05-01T16:58:38.548Z,16.52
2018-05-01T17:01:07.950Z,16.72
2018-05-01T17:03:36.299Z,15.60
2018-05-01T17:06:05.339Z,15.86
2018-05-01T17:08:34.419Z,15.74
2018-05-01T17:11:03.430Z,15.23
2018-05-01T17:13:31.747Z,15.65
2018-05-01T17:16:00.035Z,15.77
2018-05-01T17:18:28.341Z,16.07
2018-05-01T17:20:56.942Z,15.84
2018-05-01T17:23:25.639Z,16.08
2018-05-01T17:25:54.704Z,15.53
2018-05-01T17:28:23.173Z,15.46
2018-05-01T17:30:52.354Z,15.05
2018-05-01T17:33:20.839Z,14.96
2018-05-01T17:35:49.556Z,15.26
2018-05-01T17:38:18.039Z,14.96
2018-05-01T17:40:46.969Z,14.39
2018-05-01T17:43:15.186Z,14.14
2018-05-01T17:45:44.258Z,14.61
2018-05-01T17:48:12.582Z,13.91
2018-05-01T17:50:40.870Z,13.79
2018-05-01T17:53:10.934Z,13.68
2018-05-01T17:55:39.295Z,13.62
2018-05-01T17:58:10.627Z,13.38
2018-05-01T18:00:38.920Z,12.80
2018-05-01T18:03:07.260Z,12.56
2018-05-01T18:05:36.308Z,12.34
2018-05-01T18:08:04.671Z,12.25
2018-05-01T18:10:33.818Z,12.11
2018-05-01T18:13:02.970Z,12.03
2018-05-01T18:15:31.263Z,12.06
2018-05-01T18:18:00.402Z,12.09
2018-05-01T18:20:29.079Z,11.92
2018-05-01T18:22:57.487Z,11.79
2018-05-01T18:25:25.827Z,11.66
2018-05-01T18:27:59.837Z,11.57
2018-05-01T18:30:28.402Z,11.58
2018-05-01T18:32:57.300Z,11.37
2018-05-01T18:35:25.682Z,11.33
2018-05-01T18:37:53.972Z,11.27
2018-05-01T18:40:22.251Z,11.27
2018-05-01T18:42:50.579Z,11.20
2018-05-01T18:45:18.863Z,11.10
2018-05-01T18:47:54.103Z,11.00
2018-05-01T18:50:22.386Z,10.89
2018-05-01T18:52:50.667Z,10.67
2018-05-01T18:55:19.010Z,10.58
2018-05-01T18:57:47.482Z,10.52
2018-05-01T19:00:15.743Z,10.41
2018-05-01T19:02:44.035Z,10.34
2018-05-01T19:05:12.351Z,10.31
2018-05-01T19:07:40.638Z,10.28
2018-05-01T19:10:09.015Z,10.22
2018-05-01T19:12:37.311Z,10.23
2018-05-01T19:15:05.594Z,10.21
2018-05-01T19:17:33.925Z,10.17
2018-05-01T19:20:02.304Z,10.06
2018-05-01T19:22:30.754Z,9.98
2018-05-01T19:24:59.451Z,9.83
2018-05-01T19:27:27.763Z,9.76
2018-05-01T19:29:56.088Z,9.76
2018-05-01T19:32:24.367Z,9.66
2018-05-01T19:34:52.647Z,9.71
2018-05-01T19:37:20.967Z,9.68
2018-05-01T19:39:50.586Z,9.58
2018-05-01T19:42:18.634Z,9.44
2018-05-01T19:44:47.846Z,9.40
2018-05-01T19:47:16.904Z,9.43
2018-05-01T19:49:45.276Z,9.31
2018-05-01T19:52:13.747Z,9.30
2018-05-01T19:54:42.022Z,9.23
2018-05-01T19:57:10.298Z,9.17
2018-05-01T19:59:38.630Z,9.24
2018-05-01T20:02:06.906Z,9.38
2018-05-01T20:04:35.814Z,9.34
2018-05-01T20:07:04.138Z,9.46
2018-05-01T20:09:32.934Z,9.45
2018-05-01T20:12:01.218Z,9.44
2018-05-01T20:14:29.539Z,9.48
2018-05-01T20:16:57.858Z,9.45
2018-05-01T20:19:26.127Z,9.49
2018-05-01T20:21:54.471Z,9.48
2018-05-01T20:24:22.749Z,9.49
2018-05-01T20:26:51.124Z,9.50
2018-05-01T20:29:19.535Z,9.44
2018-05-01T20:31:47.811Z,9.41
2018-05-01T20:34:16.086Z,9.28
2018-05-01T20:36:45.178Z,9.28
2018-05-01T20:39:13.609Z,9.31
2018-05-01T20:41:42.006Z,9.26
2018-05-01T20:44:10.359Z,9.19
2018-05-01T20:46:38.864Z,9.08
2018-05-01T20:49:07.770Z,9.02
2018-05-01T20:51:35.870Z,8.80
2018-05-01T20:54:05.586Z,8.68
2018-05-01T20:56:34.037Z,8.63
2018-05-01T20:59:02.381Z,8.68
2018-05-01T21:01:30.957Z,8.56
2018-05-01T21:03:59.282Z,8.53
2018-05-01T21:06:27.867Z,8.45
2018-05-01T21:09:02.475Z,8.37
2018-05-01T21:11:30.621Z,8.17
2018-05-01T21:13:58.935Z,8.17
2018-05-01T21:16:28.028Z,8.11
2018-05-01T21:18:56.991Z,8.10
2018-05-01T21:21:25.671Z,7.97
2018-05-01T21:23:53.998Z,7.72
2018-05-01T21:26:25.362Z,7.67
2018-05-01T21:28:53.751Z,7.64
2018-05-01T21:31:23.712Z,7.63
2018-05-01T21:33:52.742Z,7.75
2018-05-01T21:36:21.181Z,7.64
2018-05-01T21:38:49.438Z,7.62
2018-05-01T21:41:18.102Z,7.54
2018-05-01T21:43:46.420Z,7.44
2018-05-01T21:46:14.962Z,7.44
2018-05-01T21:48:43.337Z,7.31
2018-05-01T21:51:11.618Z,7.62
2018-05-01T21:53:40.750Z,7.85
2018-05-01T21:56:09.721Z,7.85
2018-05-01T21:58:38.442Z,7.70
2018-05-01T22:01:06.935Z,7.56
2018-05-01T22:03:35.862Z,7.56
2018-05-01T22:06:04.307Z,7.43
2018-05-01T22:08:32.692Z,7.36
2018-05-01T22:11:01.715Z,7.06
2018-05-01T22:13:30.819Z,6.97
2018-05-01T22:15:59.125Z,6.73
2018-05-01T22:18:27.459Z,6.63
2018-05-01T22:20:56.427Z,6.55
2018-05-01T22:23:24.926Z,6.66
2018-05-01T22:25:53.626Z,6.45
2018-05-01T22:28:21.913Z,6.48
2018-05-01T22:30:50.250Z,6.39
2018-05-01T22:33:19.379Z,6.24
2018-05-01T22:35:48.361Z,6.20
2018-05-01T22:38:16.635Z,6.32
2018-05-01T22:40:45.267Z,6.18
2018-05-01T22:43:13.328Z,6.30
2018-05-01T22:45:41.607Z,6.36
2018-05-01T22:48:09.882Z,6.37
2018-05-01T22:50:38.359Z,6.32
2018-05-01T22:53:06.634Z,6.33
2018-05-01T22:55:35.425Z,6.29
2018-05-01T22:58:04.779Z,6.40
2018-05-01T23:00:33.062Z,6.46
2018-05-01T23:03:01.397Z,6.48
2018-05-01T23:05:30.051Z,6.37
2018-05-01T23:07:59.502Z,6.18
2018-05-01T23:10:27.827Z,6.13
2018-05-01T23:12:56.110Z,6.23
2018-05-01T23:15:24.373Z,6.20
2018-05-01T23:17:52.717Z,6.19
2018-05-01T23:20:20.991Z,6.36
2018-05-01T23:22:49.263Z,6.46
2018-05-01T23:25:17.562Z,6.48
2018-05-01T23:27:46.050Z,6.45
2018-05-01T23:30:14.335Z,6.21
2018-05-01T23:32:42.615Z,6.15
2018-05-01T23:35:10.939Z,6.03
2018-05-01T23:37:40.026Z,5.96
2018-05-01T23:40:09.118Z,5.92
2018-05-01T23:42:38.299Z,5.75
2018-05-01T23:45:06.986Z,5.58
2018-05-01T23:47:35.303Z,5.63
2018-05-01T23:50:03.590Z,5.57
2018-05-01T23:52:32.507Z,5.79
2018-05-01T23:55:00.947Z,5.64
2018-05-01T23:57:29.223Z,5.59
2018-05-01T23:59:57.556Z,5.69
